Time;durP1;ratioP1;P1;durP2;ratioP2;P2;SDS_P1;SDS_P2;PMS_P1;PMS_P2;Temp;Humidity;BMP_temperature;BMP_pressure;BME280_temperature;BME280_humidity;BME280_pressure;Samples;Min_cycle;Max_cycle;Signal;HPM_P1;HPM_P2
2021/06/09 00:01:55;;;;;;;21.17;13.27;;;16.10;99.90;;;;;;5053591;28;20842;-76
2021/06/09 00:04:21;;;;;;;17.87;12.03;;;16.10;99.90;;;;;;5052818;28;20201;-76
2021/06/09 00:06:47;;;;;;;20.13;12.70;;;16.10;99.90;;;;;;5053320;28;20172;-76
2021/06/09 00:09:12;;;;;;;19.77;13.40;;;16.00;99.90;;;;;;5053328;28;20218;-77
2021/06/09 00:11:38;;;;;;;21.47;14.30;;;16.00;99.90;;;;;;5036936;28;20204;-76
2021/06/09 00:14:05;;;;;;;21.10;14.70;;;16.00;99.90;;;;;;5032706;28;20529;-76
2021/06/09 00:16:32;;;;;;;21.40;13.60;;;16.00;99.90;;;;;;5033081;28;20170;-76
2021/06/09 00:18:57;;;;;;;16.67;13.33;;;16.00;99.90;;;;;;5033590;28;20409;-76
2021/06/09 00:21:23;;;;;;;20.20;14.93;;;15.90;99.90;;;;;;5033298;28;20404;-76
2021/06/09 00:23:49;;;;;;;20.40;14.27;;;15.90;99.90;;;;;;5032697;28;20186;-75
2021/06/09 00:26:18;;;;;;;19.80;15.13;;;15.90;99.90;;;;;;5041708;28;20526;-76
2021/06/09 00:28:45;;;;;;;19.63;14.93;;;15.90;99.90;;;;;;5053164;28;20457;-75
2021/06/09 00:31:12;;;;;;;23.03;13.27;;;15.90;99.90;;;;;;5052996;28;20402;-74
2021/06/09 00:33:38;;;;;;;19.00;13.10;;;15.90;99.90;;;;;;5052794;28;20774;-75
2021/06/09 00:36:04;;;;;;;26.30;15.27;;;15.80;99.90;;;;;;5052986;28;20423;-75
2021/06/09 00:38:30;;;;;;;25.20;11.93;;;15.80;99.90;;;;;;5053109;28;20571;-75
2021/06/09 00:40:57;;;;;;;18.40;13.20;;;15.80;99.90;;;;;;5052778;28;20773;-76
2021/06/09 00:43:27;;;;;;;16.90;11.47;;;15.80;99.90;;;;;;5052647;28;20488;-76
2021/06/09 00:45:54;;;;;;;23.73;15.73;;;15.80;99.90;;;;;;5052867;28;20506;-76
2021/06/09 00:48:25;;;;;;;20.77;11.90;;;15.80;99.90;;;;;;5052953;28;20401;-76
2021/06/09 00:50:52;;;;;;;19.00;14.93;;;15.80;99.90;;;;;;5052978;28;20739;-75
2021/06/09 00:53:27;;;;;;;14.67;10.87;;;15.80;99.90;;;;;;5052596;28;20408;-75
2021/06/09 00:55:57;;;;;;;16.43;12.33;;;15.80;99.90;;;;;;5035821;28;20523;-75
2021/06/09 00:58:23;;;;;;;25.40;14.53;;;15.80;99.90;;;;;;5032669;28;20515;-74
2021/06/09 01:00:49;;;;;;;23.73;13.60;;;15.80;99.90;;;;;;5032889;28;20804;-75
2021/06/09 01:03:15;;;;;;;23.80;14.53;;;15.80;99.90;;;;;;5032456;28;20505;-75
2021/06/09 01:05:41;;;;;;;20.37;13.43;;;15.80;99.90;;;;;;5032644;28;20423;-75
2021/06/09 01:08:08;;;;;;;29.00;15.43;;;15.70;99.90;;;;;;5032880;28;20461;-75
2021/06/09 01:10:34;;;;;;;22.77;14.00;;;15.80;99.90;;;;;;5048574;28;20226;-76
2021/06/09 01:13:01;;;;;;;18.73;13.20;;;15.80;99.90;;;;;;5054117;28;20414;-76
2021/06/09 01:15:28;;;;;;;24.23;14.60;;;15.80;99.90;;;;;;5058062;28;20423;-75
2021/06/09 01:17:55;;;;;;;19.73;15.13;;;15.80;99.90;;;;;;5056391;28;20411;-75
2021/06/09 01:20:21;;;;;;;21.03;13.50;;;15.80;99.90;;;;;;5056236;28;20443;-75
2021/06/09 01:22:47;;;;;;;22.50;14.10;;;15.80;99.90;;;;;;5055780;28;20443;-75
2021/06/09 01:25:13;;;;;;;19.03;14.03;;;15.80;99.90;;;;;;5040241;28;20784;-74
2021/06/09 01:27:40;;;;;;;28.73;14.50;;;15.90;99.90;;;;;;5035934;28;20421;-75
2021/06/09 01:30:11;;;;;;;18.40;13.13;;;15.90;99.90;;;;;;5036005;28;20411;-75
2021/06/09 01:32:37;;;;;;;18.50;12.83;;;15.80;99.90;;;;;;5036033;28;20368;-75
2021/06/09 01:35:05;;;;;;;27.70;12.90;;;15.80;99.90;;;;;;5036622;28;20440;-74
2021/06/09 01:37:32;;;;;;;23.10;14.10;;;15.90;99.90;;;;;;5036125;28;20397;-74
2021/06/09 01:39:59;;;;;;;22.40;13.57;;;15.90;99.90;;;;;;5035943;28;20496;-75
2021/06/09 01:42:30;;;;;;;22.93;14.63;;;15.80;99.90;;;;;;5035860;28;20412;-75
2021/06/09 01:44:56;;;;;;;21.97;13.07;;;15.80;99.90;;;;;;5034139;28;20440;-75
2021/06/09 01:47:23;;;;;;;23.70;14.80;;;15.80;99.90;;;;;;5035896;28;20399;-75
2021/06/09 01:49:49;;;;;;;21.57;13.30;;;15.80;99.90;;;;;;5050615;28;20407;-74
2021/06/09 01:52:17;;;;;;;20.13;12.30;;;15.80;99.90;;;;;;5055485;28;20916;-74
2021/06/09 01:54:44;;;;;;;24.60;14.40;;;15.90;99.90;;;;;;5055126;28;20426;-74
2021/06/09 01:57:12;;;;;;;21.70;14.00;;;15.90;99.90;;;;;;5055050;28;20419;-74
2021/06/09 01:59:38;;;;;;;24.40;14.70;;;15.90;99.90;;;;;;5055349;28;20419;-76
2021/06/09 02:02:04;;;;;;;22.90;13.17;;;15.80;99.90;;;;;;5055407;28;20402;-75
2021/06/09 02:04:30;;;;;;;27.20;13.53;;;15.80;99.90;;;;;;5054891;28;20814;-75
2021/06/09 02:06:56;;;;;;;20.50;12.83;;;15.90;99.90;;;;;;5055651;28;20270;-75
2021/06/09 02:09:25;;;;;;;22.60;14.13;;;15.90;99.90;;;;;;5055388;28;20431;-74
2021/06/09 02:11:51;;;;;;;19.00;14.63;;;16.00;99.90;;;;;;5048008;28;20428;-74
2021/06/09 02:14:18;;;;;;;22.27;13.93;;;15.90;99.90;;;;;;5035013;28;20791;-74
2021/06/09 02:16:46;;;;;;;20.17;13.93;;;15.90;99.90;;;;;;5035197;28;20412;-75
2021/06/09 02:19:12;;;;;;;20.53;13.30;;;15.90;99.90;;;;;;5033880;28;20420;-74
2021/06/09 02:21:40;;;;;;;18.97;12.93;;;15.80;99.90;;;;;;5033715;28;20416;-74
2021/06/09 02:24:07;;;;;;;23.17;13.23;;;15.80;99.90;;;;;;5034541;28;20861;-74
2021/06/09 02:26:34;;;;;;;24.07;14.60;;;15.80;99.90;;;;;;5042493;28;20420;-75
2021/06/09 02:29:01;;;;;;;27.73;16.63;;;15.80;99.90;;;;;;5035133;28;20423;-74
2021/06/09 02:31:27;;;;;;;26.83;16.40;;;15.80;99.90;;;;;;5035044;28;20433;-74
2021/06/09 02:33:54;;;;;;;22.40;14.60;;;15.70;99.90;;;;;;5034729;28;20413;-74
2021/06/09 02:36:21;;;;;;;23.20;15.70;;;15.70;99.90;;;;;;5034741;28;20408;-74
2021/06/09 02:38:48;;;;;;;24.80;14.63;;;15.70;99.90;;;;;;5035104;28;20511;-75
2021/06/09 02:41:15;;;;;;;23.90;16.27;;;15.60;99.90;;;;;;5039249;28;20798;-71
2021/06/09 02:43:41;;;;;;;19.47;11.87;;;15.60;99.90;;;;;;5036945;28;20453;-75
2021/06/09 02:46:21;;;;;;;27.80;15.43;;;15.60;99.90;;;;;;5034787;28;20510;-74
2021/06/09 02:48:52;;;;;;;26.90;14.03;;;15.60;99.90;;;;;;5034855;28;20477;-74
2021/06/09 02:51:21;;;;;;;21.53;12.57;;;15.60;99.90;;;;;;5044827;28;20464;-74
2021/06/09 02:54:06;;;;;;;22.07;13.63;;;15.50;99.90;;;;;;5034043;28;20457;-73
2021/06/09 02:57:01;;;;;;;21.40;14.60;;;15.50;99.90;;;;;;5034503;28;20404;-74
2021/06/09 02:59:43;;;;;;;26.60;14.73;;;15.50;99.90;;;;;;5030944;28;20435;-74
2021/06/09 03:02:17;;;;;;;22.03;13.03;;;15.40;99.90;;;;;;5034537;28;20458;-74
2021/06/09 03:04:49;;;;;;;18.37;13.83;;;15.40;99.90;;;;;;5042101;28;20545;-73
2021/06/09 03:07:36;;;;;;;26.50;16.00;;;15.40;99.90;;;;;;5054432;28;20410;-73
2021/06/09 03:10:24;;;;;;;21.53;12.67;;;15.40;99.90;;;;;;5054248;28;20391;-75
2021/06/09 03:13:02;;;;;;;19.47;12.17;;;15.30;99.90;;;;;;5052777;28;20785;-74
2021/06/09 03:15:42;;;;;;;25.17;15.63;;;15.40;99.90;;;;;;5052797;28;20426;-75
2021/06/09 03:18:16;;;;;;;25.80;15.67;;;15.40;99.90;;;;;;5053975;28;20437;-74
2021/06/09 03:20:54;;;;;;;18.27;12.47;;;15.40;99.90;;;;;;5034954;28;20422;-73
2021/06/09 03:23:41;;;;;;;26.03;14.47;;;15.40;99.90;;;;;;5033589;28;20823;-73
2021/06/09 03:26:26;;;;;;;25.83;14.17;;;15.40;99.90;;;;;;5033791;28;20419;-73
2021/06/09 03:29:01;;;;;;;25.60;15.80;;;15.40;99.90;;;;;;5033995;28;20407;-73
2021/06/09 03:31:32;;;;;;;28.23;15.40;;;15.40;99.90;;;;;;5032754;28;20495;-73
2021/06/09 03:34:00;;;;;;;21.57;13.83;;;15.60;99.90;;;;;;5033375;28;20416;-73
2021/06/09 03:36:36;;;;;;;30.30;14.20;;;15.40;99.90;;;;;;5033166;28;20800;-73
2021/06/09 03:39:05;;;;;;;21.67;13.70;;;15.50;99.90;;;;;;5033730;28;20404;-74
2021/06/09 03:41:56;;;;;;;26.40;15.10;;;15.40;99.90;;;;;;5033759;28;20404;-74
2021/06/09 03:44:38;;;;;;;24.13;16.20;;;15.40;99.90;;;;;;5046059;28;20871;-73
2021/06/09 03:47:05;;;;;;;25.40;14.17;;;15.40;99.90;;;;;;5053338;28;20415;-73
2021/06/09 03:49:32;;;;;;;24.13;15.13;;;15.40;99.90;;;;;;5053433;28;20411;-73
2021/06/09 03:52:00;;;;;;;23.20;13.00;;;15.50;99.90;;;;;;5052109;28;20828;-75
2021/06/09 03:54:30;;;;;;;22.13;14.17;;;15.50;99.90;;;;;;5052921;28;20445;-74
2021/06/09 03:56:58;;;;;;;24.23;14.30;;;15.60;99.90;;;;;;5053245;28;20411;-74
2021/06/09 03:59:25;;;;;;;23.87;13.70;;;15.60;99.90;;;;;;5053547;28;20424;-74
2021/06/09 04:01:52;;;;;;;22.63;13.17;;;15.60;99.90;;;;;;5053500;28;20886;-74
2021/06/09 04:04:20;;;;;;;25.27;13.87;;;15.70;99.90;;;;;;5052937;28;20599;-73
2021/06/09 04:06:49;;;;;;;20.87;13.37;;;15.70;99.90;;;;;;5053365;28;20412;-74
2021/06/09 04:09:20;;;;;;;27.40;15.30;;;15.80;99.90;;;;;;5053103;28;20441;-73
2021/06/09 04:11:51;;;;;;;27.87;12.40;;;15.80;99.90;;;;;;5047395;28;20420;-74
2021/06/09 04:14:22;;;;;;;25.87;15.73;;;15.70;99.90;;;;;;5032875;28;20477;-74
2021/06/09 04:16:55;;;;;;;25.90;13.70;;;15.70;99.90;;;;;;5033352;28;20408;-74
2021/06/09 04:19:24;;;;;;;22.47;13.27;;;15.70;99.90;;;;;;5033111;28;20403;-74
2021/06/09 04:21:51;;;;;;;20.70;14.70;;;15.80;99.90;;;;;;5046447;28;20418;-74
2021/06/09 04:24:17;;;;;;;43.83;16.30;;;15.80;99.90;;;;;;5052546;28;20489;-74
2021/06/09 04:26:43;;;;;;;25.13;14.60;;;15.80;99.90;;;;;;5052977;28;20407;-74
2021/06/09 04:29:09;;;;;;;25.67;15.77;;;15.80;99.90;;;;;;5054529;28;20166;-74
2021/06/09 04:31:35;;;;;;;25.10;15.83;;;15.90;99.90;;;;;;5041079;28;20423;-74
2021/06/09 04:34:01;;;;;;;27.57;15.47;;;15.90;99.90;;;;;;5032785;28;20473;-73
2021/06/09 04:36:27;;;;;;;25.50;16.37;;;16.00;99.90;;;;;;5033020;28;20419;-73
2021/06/09 04:38:53;;;;;;;29.47;17.27;;;15.90;99.90;;;;;;5033044;28;20495;-74
2021/06/09 04:41:20;;;;;;;23.87;13.87;;;16.00;99.90;;;;;;5033213;28;20416;-74
2021/06/09 04:43:47;;;;;;;24.67;15.30;;;16.10;99.90;;;;;;5032731;28;20548;-74
2021/06/09 04:46:21;;;;;;;27.90;15.80;;;16.10;99.90;;;;;;5031504;28;20485;-74
2021/06/09 04:49:04;;;;;;;27.40;14.90;;;16.10;99.90;;;;;;5036786;28;20815;-74
2021/06/09 04:51:32;;;;;;;23.57;14.20;;;16.20;99.90;;;;;;5036664;28;20405;-74
2021/06/09 04:53:59;;;;;;;21.40;14.17;;;16.20;99.90;;;;;;5036401;28;20416;-73
2021/06/09 04:56:34;;;;;;;22.07;14.00;;;16.20;99.90;;;;;;5036888;28;20413;-74
2021/06/09 04:59:01;;;;;;;25.03;15.93;;;16.20;99.90;;;;;;5036520;28;20424;-74
2021/06/09 05:01:27;;;;;;;27.93;14.40;;;16.30;99.90;;;;;;5050695;28;20506;-74
2021/06/09 05:03:53;;;;;;;27.33;15.70;;;16.40;99.90;;;;;;5055929;28;20938;-74
2021/06/09 05:06:18;;;;;;;23.70;15.37;;;16.50;99.90;;;;;;5056323;28;20400;-74
2021/06/09 05:08:44;;;;;;;21.90;13.80;;;16.50;99.90;;;;;;5056344;28;20520;-74
2021/06/09 05:11:19;;;;;;;22.87;13.20;;;16.60;99.90;;;;;;5055504;28;20181;-74
2021/06/09 05:13:46;;;;;;;20.53;13.13;;;16.70;99.90;;;;;;5056807;28;20556;-74
2021/06/09 05:16:15;;;;;;;25.17;15.60;;;16.80;99.90;;;;;;5056173;28;20421;-74
2021/06/09 05:18:48;;;;;;;23.53;13.73;;;17.00;99.90;;;;;;5056252;28;20765;-74
2021/06/09 05:21:19;;;;;;;22.73;14.67;;;17.10;99.90;;;;;;5056241;28;20403;-74
2021/06/09 05:23:48;;;;;;;19.00;13.57;;;17.20;99.90;;;;;;5055974;28;20502;-74
2021/06/09 05:26:15;;;;;;;20.90;13.53;;;17.30;99.90;;;;;;5056057;28;20450;-74
2021/06/09 05:28:47;;;;;;;21.10;13.80;;;17.40;99.90;;;;;;5057072;28;20401;-74
2021/06/09 05:31:14;;;;;;;17.43;12.57;;;17.50;99.90;;;;;;5039570;28;20474;-75
2021/06/09 05:33:42;;;;;;;19.37;13.00;;;17.60;99.90;;;;;;5034669;28;20422;-76
2021/06/09 05:36:08;;;;;;;19.97;13.10;;;17.80;99.90;;;;;;5036310;28;20428;-76
2021/06/09 05:38:34;;;;;;;20.93;13.00;;;18.00;99.90;;;;;;5035931;28;20816;-75
2021/06/09 05:41:00;;;;;;;20.10;11.73;;;18.10;99.90;;;;;;5036061;28;20409;-76
2021/06/09 05:43:28;;;;;;;16.23;11.57;;;18.20;99.90;;;;;;5035858;28;20463;-76
2021/06/09 05:45:55;;;;;;;15.53;11.30;;;18.40;99.90;;;;;;5035887;28;21010;-75
2021/06/09 05:48:21;;;;;;;19.43;11.53;;;18.50;99.90;;;;;;5035500;28;20436;-76
2021/06/09 05:50:52;;;;;;;16.30;11.67;;;18.70;99.90;;;;;;5035963;28;20462;-76
2021/06/09 05:53:18;;;;;;;15.47;11.57;;;18.80;99.90;;;;;;5041789;28;20508;-75
2021/06/09 05:55:47;;;;;;;19.00;11.90;;;18.90;99.90;;;;;;5054895;28;20468;-75
2021/06/09 05:58:16;;;;;;;16.60;9.93;;;19.10;99.90;;;;;;5054646;28;20235;-77
2021/06/09 06:00:43;;;;;;;18.57;11.30;;;19.30;99.90;;;;;;5055382;28;20743;-77
2021/06/09 06:03:12;;;;;;;20.23;11.13;;;19.50;99.90;;;;;;5054588;28;20462;-77
2021/06/09 06:05:42;;;;;;;20.43;10.60;;;19.60;99.90;;;;;;5055400;28;20426;-78
2021/06/09 06:08:07;;;;;;;18.77;10.57;;;19.70;99.90;;;;;;5054042;28;20455;-76
2021/06/09 06:10:33;;;;;;;18.23;10.80;;;19.90;99.90;;;;;;5055933;28;20436;-80
2021/06/09 06:12:59;;;;;;;22.60;11.23;;;20.00;99.90;;;;;;5054968;28;20675;-76
2021/06/09 06:15:25;;;;;;;20.63;11.37;;;19.90;99.90;;;;;;5055360;28;20649;-80
2021/06/09 06:17:52;;;;;;;17.50;11.27;;;19.90;99.90;;;;;;5036310;28;20519;-79
2021/06/09 06:20:21;;;;;;;19.80;11.37;;;19.90;99.90;;;;;;5040865;28;20419;-78
2021/06/09 06:22:49;;;;;;;17.80;10.50;;;20.00;99.90;;;;;;5049111;28;20472;-77
2021/06/09 06:25:17;;;;;;;16.90;10.60;;;20.10;99.90;;;;;;5054431;28;20479;-80
2021/06/09 06:27:45;;;;;;;19.33;11.27;;;20.30;99.90;;;;;;5053109;28;20420;-77
2021/06/09 06:30:13;;;;;;;18.07;10.53;;;20.30;99.90;;;;;;5049948;28;20413;-78
2021/06/09 06:32:40;;;;;;;15.57;9.43;;;20.20;99.90;;;;;;5034887;28;20423;-77
2021/06/09 06:35:10;;;;;;;16.90;10.10;;;20.20;99.90;;;;;;5040291;28;20845;-70
2021/06/09 06:37:36;;;;;;;16.70;10.70;;;20.20;99.90;;;;;;5054599;28;20490;-70
2021/06/09 06:40:03;;;;;;;18.67;11.37;;;20.30;99.90;;;;;;5048577;28;20503;-70
2021/06/09 06:42:29;;;;;;;20.03;10.70;;;20.30;99.90;;;;;;5034664;28;20167;-68
2021/06/09 06:44:55;;;;;;;19.90;10.83;;;20.40;99.90;;;;;;5054482;28;20459;-71
2021/06/09 06:47:24;;;;;;;15.43;9.47;;;20.50;99.90;;;;;;5047922;28;20467;-71
2021/06/09 06:49:50;;;;;;;18.27;10.73;;;20.70;99.90;;;;;;5045658;28;20593;-71
2021/06/09 06:52:17;;;;;;;16.10;9.43;;;20.80;99.90;;;;;;5050217;28;20412;-72
2021/06/09 06:54:42;;;;;;;16.43;10.20;;;20.90;99.90;;;;;;5041988;28;20519;-69
2021/06/09 06:57:12;;;;;;;17.07;10.07;;;21.00;99.90;;;;;;5034305;28;20928;-74
2021/06/09 06:59:39;;;;;;;17.93;10.43;;;21.00;99.90;;;;;;5042298;28;20722;-64
2021/06/09 07:02:06;;;;;;;17.13;10.03;;;21.10;99.90;;;;;;5046012;28;20848;-71
2021/06/09 07:04:32;;;;;;;15.80;10.27;;;21.00;99.90;;;;;;5050338;28;20466;-73
2021/06/09 07:06:59;;;;;;;16.83;11.23;;;21.00;99.90;;;;;;5050959;28;20416;-69
2021/06/09 07:09:25;;;;;;;18.80;11.60;;;21.00;99.90;;;;;;5052129;28;20444;-73
2021/06/09 07:11:54;;;;;;;13.17;8.20;;;20.90;99.90;;;;;;5038298;28;20424;-71
2021/06/09 07:14:27;;;;;;;20.80;12.30;;;21.00;99.90;;;;;;5033459;28;20533;-68
2021/06/09 07:16:54;;;;;;;17.63;11.60;;;21.10;99.90;;;;;;5034825;28;20800;-69
2021/06/09 07:19:20;;;;;;;19.00;10.83;;;21.00;99.90;;;;;;5047254;28;20431;-69
2021/06/09 07:21:46;;;;;;;19.07;10.67;;;21.00;99.90;;;;;;5041385;28;20429;-68
2021/06/09 07:24:12;;;;;;;18.70;11.30;;;21.10;99.90;;;;;;5048036;28;20467;-69
2021/06/09 07:26:45;;;;;;;16.70;9.10;;;21.10;99.90;;;;;;5048861;28;20778;-72
2021/06/09 07:29:11;;;;;;;21.00;11.23;;;21.20;99.90;;;;;;5055353;28;20170;-67
2021/06/09 07:31:40;;;;;;;18.80;9.83;;;21.30;99.90;;;;;;5053523;28;20732;-71
2021/06/09 07:34:06;;;;;;;22.13;10.53;;;21.40;99.90;;;;;;5052748;28;20427;-66
2021/06/09 07:36:53;;;;;;;18.20;10.10;;;21.30;99.90;;;;;;5053409;28;20940;-69
2021/06/09 07:39:25;;;;;;;14.27;9.20;;;21.10;99.90;;;;;;5053496;28;20404;-70
2021/06/09 07:41:54;;;;;;;18.60;11.57;;;21.00;99.90;;;;;;5053008;28;20404;-67
2021/06/09 07:44:21;;;;;;;19.23;11.53;;;20.80;99.90;;;;;;5050772;28;20474;-66
2021/06/09 07:46:51;;;;;;;19.87;12.07;;;20.60;99.90;;;;;;5037858;28;20772;-67
2021/06/09 07:49:19;;;;;;;21.10;9.97;;;20.60;99.90;;;;;;5050054;28;20415;-65
2021/06/09 07:51:45;;;;;;;18.07;11.20;;;20.60;99.90;;;;;;5055900;28;20520;-67
2021/06/09 07:54:12;;;;;;;18.43;11.07;;;20.60;99.90;;;;;;5051452;28;20428;-67
2021/06/09 07:56:40;;;;;;;19.13;11.97;;;20.60;99.90;;;;;;5050801;28;20506;-69
2021/06/09 07:59:07;;;;;;;17.70;11.73;;;20.70;99.90;;;;;;5049110;28;20442;-66
2021/06/09 08:01:34;;;;;;;17.20;11.40;;;20.80;99.90;;;;;;5048290;28;20416;-67
2021/06/09 08:04:00;;;;;;;18.67;11.97;;;20.90;99.90;;;;;;5045762;28;20471;-69
2021/06/09 08:06:27;;;;;;;19.90;12.77;;;21.20;99.90;;;;;;5040537;28;20840;-69
2021/06/09 08:08:52;;;;;;;16.80;10.50;;;21.40;99.90;;;;;;5043803;28;20916;-67
2021/06/09 08:11:19;;;;;;;17.50;10.80;;;21.80;99.90;;;;;;5048048;28;20448;-68
2021/06/09 08:13:46;;;;;;;16.70;10.40;;;22.10;99.90;;;;;;5050944;28;20186;-66
2021/06/09 08:16:17;;;;;;;15.10;9.50;;;22.60;99.90;;;;;;5045120;28;20507;-67
2021/06/09 08:18:44;;;;;;;18.07;12.87;;;23.00;99.90;;;;;;5049069;28;20424;-65
2021/06/09 08:21:21;;;;;;;17.37;11.60;;;23.40;99.90;;;;;;5050927;28;20755;-68
2021/06/09 08:23:50;;;;;;;15.87;11.63;;;23.80;99.90;;;;;;5056323;28;20515;-67
2021/06/09 08:26:18;;;;;;;14.93;10.37;;;24.30;99.90;;;;;;5049656;28;20429;-70
2021/06/09 08:28:45;;;;;;;16.00;12.43;;;24.80;99.90;;;;;;5043073;28;20404;-68
2021/06/09 08:31:18;;;;;;;19.13;13.87;;;25.40;99.90;;;;;;5038849;28;20784;-67
2021/06/09 08:33:44;;;;;;;16.33;11.90;;;25.80;99.90;;;;;;5036553;28;20420;-69
2021/06/09 08:36:11;;;;;;;15.70;10.80;;;25.90;99.90;;;;;;5039638;28;20418;-65
2021/06/09 08:38:37;;;;;;;15.33;11.93;;;25.90;99.90;;;;;;5036850;28;20782;-68
2021/06/09 08:41:07;;;;;;;15.03;12.77;;;25.90;99.90;;;;;;5041177;28;20424;-68
2021/06/09 08:43:34;;;;;;;14.43;10.70;;;26.10;99.90;;;;;;5055664;28;20456;-67
2021/06/09 08:46:03;;;;;;;16.87;12.00;;;26.80;99.90;;;;;;5051458;28;20444;-68
2021/06/09 08:48:29;;;;;;;15.13;12.00;;;27.30;99.90;;;;;;5056724;28;20805;-67
2021/06/09 08:50:56;;;;;;;17.73;12.63;;;27.10;99.90;;;;;;5054774;28;20921;-65
2021/06/09 08:53:22;;;;;;;17.50;13.63;;;26.80;99.90;;;;;;5056351;28;20443;-67
2021/06/09 08:55:49;;;;;;;17.30;12.67;;;26.40;99.90;;;;;;5055673;28;20474;-67
2021/06/09 08:58:16;;;;;;;16.47;11.83;;;26.20;99.90;;;;;;5055558;28;20398;-70
2021/06/09 09:00:43;;;;;;;15.50;11.83;;;26.50;99.90;;;;;;5044568;28;20778;-65
2021/06/09 09:03:09;;;;;;;16.50;13.07;;;27.00;99.90;;;;;;5055892;28;20469;-66
2021/06/09 09:05:36;;;;;;;16.20;12.30;;;27.70;99.90;;;;;;5055617;28;20503;-65
2021/06/09 09:08:03;;;;;;;17.10;13.57;;;28.60;99.90;;;;;;5055088;28;20395;-67
2021/06/09 09:10:30;;;;;;;15.73;12.20;;;29.80;97.60;;;;;;5048380;28;20482;-65
2021/06/09 09:12:56;;;;;;;13.63;11.40;;;30.60;96.30;;;;;;5055578;28;20394;-67
2021/06/09 09:15:22;;;;;;;13.60;12.33;;;30.80;94.70;;;;;;5048636;28;20437;-65
2021/06/09 09:17:57;;;;;;;13.13;11.90;;;30.90;94.40;;;;;;5052662;28;20267;-66
2021/06/09 09:20:32;;;;;;;13.80;12.50;;;30.70;94.60;;;;;;5054947;28;20390;-68
2021/06/09 09:22:59;;;;;;;12.10;10.97;;;30.60;93.80;;;;;;5055275;28;20786;-68
2021/06/09 09:25:31;;;;;;;12.07;10.97;;;30.50;95.20;;;;;;5055361;28;20415;-68
2021/06/09 09:28:03;;;;;;;12.83;11.53;;;30.70;94.80;;;;;;5054848;28;20427;-69
2021/06/09 09:30:35;;;;;;;12.57;11.30;;;31.20;93.80;;;;;;5052934;28;20390;-64
2021/06/09 09:33:03;;;;;;;10.90;9.90;;;31.70;92.60;;;;;;5054327;28;20394;-66
2021/06/09 09:35:35;;;;;;;11.90;10.77;;;32.30;91.40;;;;;;5046019;28;20448;-67
2021/06/09 09:38:17;;;;;;;13.50;12.27;;;32.90;91.10;;;;;;5042005;28;20448;-66
2021/06/09 09:41:04;;;;;;;11.97;10.80;;;32.90;90.00;;;;;;5052381;28;20436;-65
2021/06/09 09:43:51;;;;;;;12.50;11.30;;;32.90;90.10;;;;;;5052961;28;20479;-65
2021/06/09 09:46:32;;;;;;;14.43;12.50;;;32.60;88.90;;;;;;5054203;28;20440;-67
2021/06/09 09:49:18;;;;;;;12.60;11.50;;;32.40;90.00;;;;;;5054649;28;20485;-67
2021/06/09 09:51:55;;;;;;;11.67;10.47;;;32.40;88.90;;;;;;5055612;28;20484;-69
2021/06/09 09:54:35;;;;;;;11.40;10.30;;;32.60;88.60;;;;;;5033865;28;20939;-67
2021/06/09 09:57:06;;;;;;;7.80;7.20;;;32.90;85.40;;;;;;5038916;28;20821;-66
2021/06/09 09:59:33;;;;;;;9.60;8.90;;;33.40;83.50;;;;;;5059915;28;20420;-68
2021/06/09 10:02:02;;;;;;;9.23;8.47;;;33.60;80.60;;;;;;5070082;28;20428;-65
2021/06/09 10:04:33;;;;;;;8.93;8.23;;;34.10;79.10;;;;;;5053141;28;20475;-68
2021/06/09 10:07:00;;;;;;;10.00;9.23;;;34.10;77.20;;;;;;5048397;28;20427;-67
2021/06/09 10:09:34;;;;;;;11.13;10.00;;;34.30;79.40;;;;;;5055172;28;20877;-70
2021/06/09 10:12:04;;;;;;;10.10;9.23;;;34.70;77.00;;;;;;5042266;28;20452;-68
2021/06/09 10:14:38;;;;;;;10.37;9.57;;;34.50;75.80;;;;;;5042600;28;20550;-72
2021/06/09 10:17:10;;;;;;;9.30;8.40;;;34.50;77.30;;;;;;5042231;28;20927;-67
2021/06/09 10:19:44;;;;;;;10.80;9.10;;;34.80;76.60;;;;;;5054990;28;20781;-70
2021/06/09 10:22:19;;;;;;;10.00;8.93;;;35.00;75.90;;;;;;5046573;28;20423;-69
2021/06/09 10:24:52;;;;;;;10.33;9.23;;;35.00;75.00;;;;;;5053636;28;20435;-69
2021/06/09 10:27:32;;;;;;;9.40;8.40;;;34.50;74.80;;;;;;5054078;28;20825;-71
2021/06/09 10:29:58;;;;;;;11.70;9.30;;;34.20;75.70;;;;;;5046015;28;20406;-74
2021/06/09 10:32:23;;;;;;;12.33;10.60;;;33.80;76.50;;;;;;5049093;28;20466;-69
2021/06/09 10:34:49;;;;;;;9.80;8.70;;;33.00;78.00;;;;;;5049829;28;20296;-67
2021/06/09 10:37:15;;;;;;;11.57;10.07;;;32.80;82.70;;;;;;5039682;28;20182;-67
2021/06/09 10:39:43;;;;;;;13.57;10.83;;;32.30;82.60;;;;;;5041359;28;20256;-65
2021/06/09 10:42:13;;;;;;;12.07;9.50;;;31.70;83.50;;;;;;5037877;28;20384;-70
2021/06/09 10:44:43;;;;;;;11.53;10.33;;;31.90;84.00;;;;;;5035846;28;20497;-70
2021/06/09 10:47:32;;;;;;;11.00;9.03;;;31.90;83.20;;;;;;5040804;28;20769;-68
2021/06/09 10:49:59;;;;;;;11.50;9.97;;;32.00;82.60;;;;;;5040265;28;20455;-69
2021/06/09 10:52:25;;;;;;;12.33;9.00;;;32.00;82.90;;;;;;5039283;28;20479;-71
2021/06/09 10:54:51;;;;;;;10.67;8.80;;;31.90;82.20;;;;;;5034530;28;20521;-69
2021/06/09 10:57:17;;;;;;;10.17;8.67;;;31.90;82.60;;;;;;5034603;28;21334;-68
2021/06/09 10:59:43;;;;;;;11.83;10.07;;;32.20;83.70;;;;;;5038284;28;20607;-67
2021/06/09 11:02:12;;;;;;;10.93;9.60;;;32.20;83.90;;;;;;5045383;28;20398;-66
2021/06/09 11:04:44;;;;;;;11.43;8.40;;;32.50;83.30;;;;;;5052726;28;20430;-69
2021/06/09 11:07:29;;;;;;;9.70;8.63;;;32.90;81.60;;;;;;5050547;28;20395;-69
2021/06/09 11:09:57;;;;;;;11.00;9.47;;;32.70;82.90;;;;;;5053591;28;20383;-69
2021/06/09 11:12:25;;;;;;;11.20;9.63;;;32.50;82.60;;;;;;5035891;28;20392;-65
2021/06/09 11:14:57;;;;;;;12.13;8.97;;;31.90;84.50;;;;;;5033707;28;20833;-64
2021/06/09 11:17:36;;;;;;;11.37;9.70;;;31.50;83.90;;;;;;5032729;28;20392;-66
2021/06/09 11:20:16;;;;;;;11.60;8.97;;;31.00;87.10;;;;;;5038331;28;20820;-63
2021/06/09 11:22:47;;;;;;;9.70;8.60;;;30.50;87.60;;;;;;5053825;28;20408;-64
2021/06/09 11:25:19;;;;;;;11.67;8.70;;;30.10;89.90;;;;;;5052155;28;20853;-63
2021/06/09 11:27:54;;;;;;;11.67;9.10;;;29.50;90.00;;;;;;5051537;28;20394;-68
2021/06/09 11:30:26;;;;;;;13.97;8.83;;;29.00;90.10;;;;;;5053537;28;20419;-70
2021/06/09 11:32:56;;;;;;;10.13;7.20;;;28.70;89.70;;;;;;5052918;28;20427;-71
2021/06/09 11:35:59;;;;;;;11.60;8.73;;;28.50;88.70;;;;;;5042151;28;20410;-69
2021/06/09 11:38:30;;;;;;;12.10;8.50;;;28.20;89.90;;;;;;5051337;28;20424;-69
2021/06/09 11:41:05;;;;;;;10.30;7.37;;;27.80;90.30;;;;;;5053100;28;20412;-70
2021/06/09 11:43:52;;;;;;;14.23;9.50;;;27.50;91.50;;;;;;5052937;28;20449;-68
2021/06/09 11:46:18;;;;;;;11.67;8.20;;;27.10;92.20;;;;;;5053636;28;20512;-66
2021/06/09 11:49:05;;;;;;;11.13;8.90;;;27.00;93.60;;;;;;5048848;28;20782;-65
2021/06/09 11:51:34;;;;;;;9.43;6.60;;;27.00;94.10;;;;;;5033345;28;20179;-66
2021/06/09 11:54:02;;;;;;;9.23;6.57;;;27.20;94.00;;;;;;5045794;28;20981;-68
2021/06/09 11:56:38;;;;;;;10.13;6.47;;;27.50;92.30;;;;;;5052793;28;20444;-66
2021/06/09 11:59:07;;;;;;;9.20;6.90;;;27.60;92.20;;;;;;5052341;28;20432;-66
2021/06/09 12:01:44;;;;;;;8.63;5.80;;;27.70;90.50;;;;;;5050592;28;20404;-64
2021/06/09 12:04:20;;;;;;;8.40;6.30;;;27.60;90.70;;;;;;5041322;28;20870;-68
2021/06/09 12:07:07;;;;;;;9.77;6.03;;;27.60;90.30;;;;;;5052716;28;20434;-67
2021/06/09 12:09:34;;;;;;;9.67;6.70;;;27.40;90.80;;;;;;5051109;28;20927;-63
2021/06/09 12:12:03;;;;;;;8.77;6.47;;;27.20;91.40;;;;;;5053098;28;20408;-66
2021/06/09 12:14:34;;;;;;;9.80;6.90;;;27.10;91.30;;;;;;5047482;28;20469;-66
2021/06/09 12:19:35;;;;;;;9.23;6.67;;;27.10;92.60;;;;;;5337970;22;20478;-67
2021/06/09 12:22:07;;;;;;;9.30;6.10;;;27.20;92.00;;;;;;5026306;28;20408;-68
2021/06/09 12:24:37;;;;;;;10.30;7.00;;;27.40;91.60;;;;;;5032101;28;20193;-67
2021/06/09 12:27:11;;;;;;;9.10;7.07;;;27.80;93.10;;;;;;5032558;28;20470;-67
2021/06/09 12:29:41;;;;;;;8.30;6.50;;;28.10;93.50;;;;;;5031258;28;20440;-68
2021/06/09 13:21:13;;;;;;;8.87;4.90;;;24.90;94.60;;;;;;5054976;28;20537;-66
2021/06/09 13:23:38;;;;;;;9.67;5.90;;;24.80;95.90;;;;;;5056110;28;20408;-66
2021/06/09 13:26:06;;;;;;;12.87;6.70;;;24.30;97.70;;;;;;5055647;28;20404;-67
2021/06/09 13:28:32;;;;;;;11.10;6.90;;;23.70;99.90;;;;;;5055847;28;20169;-66
2021/06/09 13:30:58;;;;;;;9.77;6.20;;;23.00;99.90;;;;;;5056102;28;20527;-66
2021/06/09 13:33:23;;;;;;;11.30;6.30;;;22.40;99.90;;;;;;5056407;28;20208;-66
2021/06/09 13:35:49;;;;;;;7.90;4.90;;;22.00;99.90;;;;;;5056226;28;20181;-66